createdAt,value
2023-01-10T00:00:09.103Z,3.99
2023-01-10T00:05:11.047Z,4.15
2023-01-10T00:10:14.151Z,4.21
2023-01-10T00:15:16.065Z,4.28
2023-01-10T00:20:18.193Z,4.33
2023-01-10T00:25:21.297Z,4.35
2023-01-10T00:30:23.237Z,4.35
2023-01-10T00:35:26.339Z,4.32
2023-01-10T00:40:28.272Z,4.30
2023-01-10T00:45:30.812Z,4.32
2023-01-10T00:50:32.711Z,4.26
2023-01-10T00:55:36.233Z,4.24
2023-01-10T01:00:39.045Z,4.22
2023-01-10T01:05:45.297Z,4.19
2023-01-10T01:10:47.212Z,4.15
2023-01-10T01:15:50.210Z,4.14
2023-01-10T01:20:57.121Z,4.17
2023-01-10T01:25:59.034Z,4.10
2023-01-10T01:31:07.656Z,4.05
2023-01-10T01:36:13.185Z,4.01
2023-01-10T01:41:33.524Z,3.97
2023-01-10T01:46:39.125Z,4.02
2023-01-10T01:51:41.104Z,4.03
2023-01-10T01:56:51.909Z,3.99
2023-01-10T02:01:59.387Z,3.97
2023-01-10T02:07:01.322Z,4.00
2023-01-10T02:12:03.631Z,4.00
2023-01-10T02:17:09.012Z,3.99
2023-01-10T02:22:33.856Z,3.99
2023-01-10T02:27:41.408Z,4.01
2023-01-10T02:33:18.795Z,4.00
2023-01-10T02:38:37.068Z,4.00
2023-01-10T02:43:46.195Z,4.01
2023-01-10T02:48:48.029Z,4.01
2023-01-10T02:54:19.510Z,4.01
2023-01-10T02:59:21.275Z,4.02
2023-01-10T03:05:00.654Z,4.06
2023-01-10T03:10:09.018Z,4.10
2023-01-10T03:15:13.601Z,4.12
2023-01-10T03:20:18.029Z,4.18
2023-01-10T03:25:23.467Z,4.19
2023-01-10T03:30:43.996Z,4.20
2023-01-10T03:36:04.093Z,4.11
2023-01-10T03:41:13.950Z,4.11
2023-01-10T03:46:29.740Z,4.13
2023-01-10T03:51:32.845Z,4.13
2023-01-10T03:56:51.801Z,4.13
2023-01-10T04:01:55.528Z,4.17
2023-01-10T04:06:57.417Z,4.21
2023-01-10T04:11:59.188Z,4.22
2023-01-10T04:17:01.013Z,4.21
2023-01-10T04:22:03.319Z,4.19
2023-01-10T04:27:05.315Z,4.11
2023-01-10T04:32:07.196Z,4.07
2023-01-10T04:37:08.970Z,4.07
2023-01-10T04:42:10.949Z,4.06
2023-01-10T04:47:12.767Z,4.06
2023-01-10T04:52:14.603Z,4.13
2023-01-10T04:57:16.361Z,4.16
2023-01-10T05:02:18.296Z,4.13
2023-01-10T05:07:20.097Z,4.16
2023-01-10T05:12:21.861Z,4.21
2023-01-10T05:17:23.696Z,4.22
2023-01-10T05:22:25.645Z,4.25
2023-01-10T05:27:27.462Z,4.25
2023-01-10T05:32:29.825Z,4.26
2023-01-10T05:37:31.649Z,4.27
2023-01-10T05:42:33.479Z,4.20
2023-01-10T05:47:35.254Z,4.03
2023-01-10T05:52:37.072Z,3.92
2023-01-10T05:57:38.916Z,3.78
2023-01-10T06:02:40.877Z,3.77
2023-01-10T06:07:42.991Z,3.77
2023-01-10T06:12:44.983Z,3.74
2023-01-10T06:17:46.824Z,3.78
2023-01-10T06:22:48.675Z,3.75
2023-01-10T06:27:50.527Z,3.76
2023-01-10T06:32:52.373Z,3.79
2023-01-10T06:37:54.242Z,3.77
2023-01-10T06:42:56.148Z,3.74
2023-01-10T06:47:58.046Z,3.73
2023-01-10T06:53:02.246Z,3.72
2023-01-10T06:58:05.117Z,3.74
2023-01-10T07:03:07.929Z,3.75
2023-01-10T07:08:09.784Z,3.73
2023-01-10T07:13:11.579Z,3.71
2023-01-10T07:18:13.375Z,3.72
2023-01-10T07:23:15.273Z,3.76
2023-01-10T07:28:17.093Z,3.80
2023-01-10T07:33:18.904Z,3.86
2023-01-10T07:38:20.742Z,3.84
2023-01-10T07:43:22.590Z,3.87
2023-01-10T07:48:24.569Z,3.88
2023-01-10T07:53:27.747Z,3.81
2023-01-10T07:58:29.712Z,3.84
2023-01-10T08:03:33.306Z,3.90
2023-01-10T08:08:35.358Z,3.97
2023-01-10T08:13:37.273Z,4.02
2023-01-10T08:18:42.471Z,4.02
2023-01-10T08:23:44.280Z,3.92
2023-01-10T08:28:46.146Z,3.91
2023-01-10T08:33:48.017Z,3.84
2023-01-10T08:38:51.077Z,3.93
2023-01-10T08:43:53.036Z,4.09
2023-01-10T08:48:54.917Z,4.18
2023-01-10T08:53:56.808Z,4.12
2023-01-10T08:58:58.653Z,3.98
2023-01-10T09:04:00.495Z,3.97
2023-01-10T09:09:02.375Z,4.03
2023-01-10T09:14:04.249Z,4.11
2023-01-10T09:19:06.132Z,4.24
2023-01-10T09:24:08.068Z,4.29
2023-01-10T09:29:09.910Z,4.46
2023-01-10T09:34:13.014Z,4.50
2023-01-10T09:39:14.881Z,4.50
2023-01-10T09:44:36.919Z,4.59
2023-01-10T09:50:06.577Z,4.64
2023-01-10T09:55:36.994Z,4.68
2023-01-10T10:00:41.262Z,4.72
2023-01-10T10:05:43.707Z,4.76
2023-01-10T10:11:01.406Z,4.99
2023-01-10T10:16:30.946Z,5.08
2023-01-10T10:22:06.068Z,4.96
2023-01-10T10:27:13.771Z,4.99
2023-01-10T10:32:36.834Z,4.97
2023-01-10T10:37:44.371Z,5.13
2023-01-10T10:42:51.014Z,5.14
2023-01-10T10:48:00.971Z,5.16
2023-01-10T10:53:05.057Z,5.19
2023-01-10T10:58:08.134Z,5.35
2023-01-10T11:03:21.994Z,5.41
2023-01-10T11:08:24.550Z,5.48
2023-01-10T11:13:35.464Z,5.95
2023-01-10T11:18:38.584Z,5.91
2023-01-10T11:23:40.332Z,5.79
2023-01-10T11:28:45.974Z,5.84
2023-01-10T11:33:48.215Z,5.91
2023-01-10T11:39:04.372Z,5.96
2023-01-10T11:44:17.409Z,6.06
2023-01-10T11:49:34.648Z,6.06
2023-01-10T11:54:36.527Z,6.11
2023-01-10T11:59:39.226Z,5.94
2023-01-10T12:04:47.616Z,5.79
2023-01-10T12:10:00.944Z,5.74
2023-01-10T12:15:29.617Z,5.87
2023-01-10T12:20:34.889Z,5.91
2023-01-10T12:25:46.444Z,6.08
2023-01-10T12:30:52.949Z,6.06
2023-01-10T12:35:59.693Z,6.10
2023-01-10T12:41:03.238Z,6.03
2023-01-10T12:46:43.580Z,5.91
2023-01-10T12:51:48.276Z,5.74
2023-01-10T12:56:50.960Z,5.78
2023-01-10T13:01:56.867Z,5.77
2023-01-10T13:07:01.290Z,5.70
2023-01-10T13:12:21.416Z,5.69
2023-01-10T13:17:32.450Z,5.56
2023-01-10T13:22:36.271Z,5.50
2023-01-10T13:27:38.229Z,5.54
2023-01-10T13:32:40.118Z,5.69
2023-01-10T13:37:44.843Z,5.75
2023-01-10T13:43:18.929Z,5.72
2023-01-10T13:48:26.728Z,5.70
2023-01-10T13:53:28.482Z,5.76
2023-01-10T13:59:00.027Z,5.65
2023-01-10T14:04:02.163Z,5.54
2023-01-10T14:09:24.151Z,5.58
2023-01-10T14:14:33.245Z,5.62
2023-01-10T14:19:35.263Z,5.60
2023-01-10T14:24:40.073Z,5.52
2023-01-10T14:29:58.386Z,5.53
2023-01-10T14:35:03.609Z,5.53
2023-01-10T14:40:30.057Z,5.42
2023-01-10T14:45:45.437Z,5.27
2023-01-10T14:50:47.608Z,5.24
2023-01-10T14:55:49.524Z,5.23
2023-01-10T15:00:53.931Z,5.24
2023-01-10T15:05:57.570Z,5.17
2023-01-10T15:11:06.695Z,5.13
2023-01-10T15:16:19.606Z,5.08
2023-01-10T15:21:22.325Z,5.07
2023-01-10T15:26:27.248Z,5.03
2023-01-10T15:31:30.731Z,4.94
2023-01-10T15:36:32.937Z,4.83
2023-01-10T15:41:35.669Z,4.81
2023-01-10T15:46:54.536Z,4.75
2023-01-10T15:51:57.719Z,4.70
2023-01-10T15:57:07.921Z,4.72
2023-01-10T16:02:13.626Z,4.68
2023-01-10T16:07:25.683Z,4.63
2023-01-10T16:12:57.382Z,4.56
2023-01-10T16:17:59.214Z,4.51
2023-01-10T16:23:02.263Z,4.51
2023-01-10T16:28:04.450Z,4.49
2023-01-10T16:33:12.264Z,4.41
2023-01-10T16:38:15.849Z,4.34
2023-01-10T16:43:18.022Z,4.27
2023-01-10T16:48:20.881Z,4.24
2023-01-10T16:53:22.749Z,4.12
2023-01-10T16:58:24.727Z,3.99
2023-01-10T17:03:27.019Z,3.80
2023-01-10T17:08:29.155Z,3.61
2023-01-10T17:13:34.393Z,3.50
2023-01-10T17:18:39.276Z,3.34
2023-01-10T17:23:42.042Z,3.20
2023-01-10T17:28:49.784Z,3.11
2023-01-10T17:33:51.782Z,2.99
2023-01-10T17:38:53.584Z,2.94
2023-01-10T17:43:55.435Z,2.88
2023-01-10T17:48:57.591Z,2.74
2023-01-10T17:53:59.876Z,2.60
2023-01-10T17:59:01.757Z,2.26
2023-01-10T18:04:03.720Z,2.05
2023-01-10T18:09:06.273Z,1.98
2023-01-10T18:14:26.565Z,1.88
2023-01-10T18:19:30.049Z,1.85
2023-01-10T18:24:31.821Z,1.82
2023-01-10T18:29:33.822Z,1.52
2023-01-10T18:34:35.612Z,1.78
2023-01-10T18:39:37.433Z,2.11
2023-01-10T18:44:39.905Z,1.93
2023-01-10T18:49:41.698Z,2.05
2023-01-10T18:54:43.615Z,2.33
2023-01-10T18:59:45.605Z,2.47
2023-01-10T19:04:47.490Z,2.52
2023-01-10T19:09:49.323Z,2.60
2023-01-10T19:14:51.528Z,2.48
2023-01-10T19:19:54.752Z,2.58
2023-01-10T19:24:56.517Z,2.68
2023-01-10T19:29:58.451Z,2.64
2023-01-10T19:35:00.437Z,2.53
2023-01-10T19:40:02.381Z,2.43
2023-01-10T19:45:06.102Z,2.44
2023-01-10T19:50:08.195Z,2.23
2023-01-10T19:55:10.054Z,2.02
2023-01-10T20:00:12.114Z,1.96
2023-01-10T20:05:13.888Z,1.93
2023-01-10T20:10:15.832Z,2.04
2023-01-10T20:15:17.693Z,2.09
2023-01-10T20:20:20.632Z,2.17
2023-01-10T20:25:22.216Z,2.11
2023-01-10T20:30:23.894Z,2.04
2023-01-10T20:35:25.603Z,2.07
2023-01-10T20:40:27.219Z,1.95
2023-01-10T20:45:28.817Z,1.95
2023-01-10T20:50:30.500Z,2.02
2023-01-10T20:55:35.019Z,1.92
2023-01-10T21:00:36.679Z,2.10
2023-01-10T21:05:38.864Z,2.14
2023-01-10T21:10:43.977Z,2.20
2023-01-10T21:15:47.138Z,2.17
2023-01-10T21:20:48.766Z,2.17
2023-01-10T21:25:51.811Z,2.26
2023-01-10T21:30:53.638Z,2.32
2023-01-10T21:36:00.336Z,2.23
2023-01-10T21:41:07.105Z,2.35
2023-01-10T21:46:08.675Z,2.33
2023-01-10T21:51:10.324Z,2.27
2023-01-10T21:56:11.980Z,2.30
2023-01-10T22:01:14.799Z,2.24
2023-01-10T22:06:16.489Z,2.14
2023-01-10T22:11:18.333Z,2.21
2023-01-10T22:16:20.052Z,2.31
2023-01-10T22:21:21.913Z,2.43
2023-01-10T22:26:23.625Z,2.52
2023-01-10T22:31:25.320Z,2.64
2023-01-10T22:36:27.043Z,2.63
2023-01-10T22:41:28.887Z,2.58
2023-01-10T22:46:30.480Z,2.52
2023-01-10T22:51:35.468Z,2.58
2023-01-10T22:56:37.356Z,2.63
2023-01-10T23:01:39.868Z,2.65
2023-01-10T23:06:41.543Z,2.82
2023-01-10T23:11:43.182Z,2.94
2023-01-10T23:16:45.046Z,3.13
2023-01-10T23:21:46.734Z,3.28
2023-01-10T23:26:49.941Z,3.37
2023-01-10T23:31:51.606Z,3.39
2023-01-10T23:36:53.319Z,3.34
2023-01-10T23:41:54.993Z,3.35
2023-01-10T23:46:56.662Z,3.46
2023-01-10T23:51:58.295Z,3.57
2023-01-10T23:57:00.049Z,3.62
